sensor_id;sensor_type;location;lat;lon;timestamp;pressure;altitude;pressure_sealevel;temperature;humidity
45793;BME280;31495;42.740;22.908;2023-03-19T00:00:41;93607.50;;;1.66;58.77
45793;BME280;31495;42.740;22.908;2023-03-19T00:01:40;93607.34;;;1.68;58.61
45793;BME280;31495;42.740;22.908;2023-03-19T00:02:40;93604.13;;;1.65;58.92
45793;BME280;31495;42.740;22.908;2023-03-19T00:03:39;93608.44;;;1.65;58.70
45793;BME280;31495;42.740;22.908;2023-03-19T00:04:39;93602.09;;;1.69;58.67
45793;BME280;31495;42.740;22.908;2023-03-19T00:05:39;93596.19;;;1.69;58.76
45793;BME280;31495;42.740;22.908;2023-03-19T00:06:39;93539.53;;;1.29;58.63
45793;BME280;31495;42.740;22.908;2023-03-19T00:07:38;93570.00;;;1.49;58.52
45793;BME280;31495;42.740;22.908;2023-03-19T00:08:38;93491.25;;;1.00;58.40
45793;BME280;31495;42.740;22.908;2023-03-19T00:09:37;93606.94;;;1.72;58.39
45793;BME280;31495;42.740;22.908;2023-03-19T00:10:38;93572.00;;;1.55;58.40
45793;BME280;31495;42.740;22.908;2023-03-19T00:11:38;93557.53;;;1.45;58.25
45793;BME280;31495;42.740;22.908;2023-03-19T00:12:37;93545.00;;;1.34;58.46
45793;BME280;31495;42.740;22.908;2023-03-19T00:13:38;93601.97;;;1.71;58.13
45793;BME280;31495;42.740;22.908;2023-03-19T00:14:37;93545.88;;;1.25;58.16
45793;BME280;31495;42.740;22.908;2023-03-19T00:15:37;93526.59;;;1.13;58.46
45793;BME280;31495;42.740;22.908;2023-03-19T00:16:37;93588.88;;;1.56;58.89
45793;BME280;31495;42.740;22.908;2023-03-19T00:17:37;93577.84;;;1.37;58.62
45793;BME280;31495;42.740;22.908;2023-03-19T00:18:36;93522.22;;;1.05;58.87
45793;BME280;31495;42.740;22.908;2023-03-19T00:19:36;93508.97;;;1.01;58.75
45793;BME280;31495;42.740;22.908;2023-03-19T00:20:35;93559.84;;;1.39;58.48
45793;BME280;31495;42.740;22.908;2023-03-19T00:21:35;93535.44;;;1.18;58.67
45793;BME280;31495;42.740;22.908;2023-03-19T00:22:35;93565.25;;;1.36;58.75
45793;BME280;31495;42.740;22.908;2023-03-19T00:23:35;93546.66;;;1.25;58.75
45793;BME280;31495;42.740;22.908;2023-03-19T00:24:34;93538.69;;;1.10;59.02
45793;BME280;31495;42.740;22.908;2023-03-19T00:25:34;93527.03;;;1.08;59.00
45793;BME280;31495;42.740;22.908;2023-03-19T00:26:35;93584.66;;;1.46;58.90
45793;BME280;31495;42.740;22.908;2023-03-19T00:27:36;93484.16;;;0.76;58.88
45793;BME280;31495;42.740;22.908;2023-03-19T00:28:36;93541.66;;;1.06;59.07
45793;BME280;31495;42.740;22.908;2023-03-19T00:29:36;93483.94;;;0.69;59.20
45793;BME280;31495;42.740;22.908;2023-03-19T00:30:36;93532.84;;;1.00;59.11
45793;BME280;31495;42.740;22.908;2023-03-19T00:31:35;93507.47;;;0.81;59.50
45793;BME280;31495;42.740;22.908;2023-03-19T00:32:35;93582.34;;;1.25;59.63
45793;BME280;31495;42.740;22.908;2023-03-19T00:33:35;93502.50;;;0.79;59.03
45793;BME280;31495;42.740;22.908;2023-03-19T00:34:34;93543.03;;;1.00;59.15
45793;BME280;31495;42.740;22.908;2023-03-19T00:35:34;93538.09;;;0.99;59.21
45793;BME280;31495;42.740;22.908;2023-03-19T00:36:34;93527.44;;;0.85;59.34
45793;BME280;31495;42.740;22.908;2023-03-19T00:37:34;93573.81;;;1.17;59.67
45793;BME280;31495;42.740;22.908;2023-03-19T00:38:34;93574.94;;;1.04;59.69
45793;BME280;31495;42.740;22.908;2023-03-19T00:39:34;93561.94;;;0.98;59.76
45793;BME280;31495;42.740;22.908;2023-03-19T00:40:34;93502.75;;;0.48;60.19
45793;BME280;31495;42.740;22.908;2023-03-19T00:41:34;93548.41;;;0.69;60.36
45793;BME280;31495;42.740;22.908;2023-03-19T00:42:33;93571.16;;;0.81;60.55
45793;BME280;31495;42.740;22.908;2023-03-19T00:43:33;93483.13;;;0.21;60.29
45793;BME280;31495;42.740;22.908;2023-03-19T00:44:32;93523.25;;;0.47;60.25
45793;BME280;31495;42.740;22.908;2023-03-19T00:45:32;93518.16;;;0.47;60.16
45793;BME280;31495;42.740;22.908;2023-03-19T00:46:31;93500.25;;;0.39;60.04
45793;BME280;31495;42.740;22.908;2023-03-19T00:47:31;93554.28;;;0.70;60.25
45793;BME280;31495;42.740;22.908;2023-03-19T00:48:30;93519.78;;;0.48;60.28
45793;BME280;31495;42.740;22.908;2023-03-19T00:49:30;93577.06;;;0.71;60.90
45793;BME280;31495;42.740;22.908;2023-03-19T00:50:29;93415.53;;;-0.39;61.34
45793;BME280;31495;42.740;22.908;2023-03-19T00:51:29;93480.22;;;0.06;61.38
45793;BME280;31495;42.740;22.908;2023-03-19T00:52:29;93483.69;;;0.25;61.16
45793;BME280;31495;42.740;22.908;2023-03-19T00:53:28;93550.84;;;0.61;61.11
45793;BME280;31495;42.740;22.908;2023-03-19T00:54:28;93502.53;;;0.32;60.92
45793;BME280;31495;42.740;22.908;2023-03-19T00:55:30;93581.75;;;0.76;61.01
45793;BME280;31495;42.740;22.908;2023-03-19T00:56:29;93563.25;;;0.74;60.78
45793;BME280;31495;42.740;22.908;2023-03-19T00:57:29;93512.84;;;0.40;60.57
45793;BME280;31495;42.740;22.908;2023-03-19T00:58:28;93571.38;;;0.87;60.76
45793;BME280;31495;42.740;22.908;2023-03-19T00:59:28;93498.94;;;0.34;60.71
45793;BME280;31495;42.740;22.908;2023-03-19T01:00:27;93509.63;;;0.38;60.57
45793;BME280;31495;42.740;22.908;2023-03-19T01:01:27;93560.72;;;0.74;60.67
45793;BME280;31495;42.740;22.908;2023-03-19T01:02:26;93500.78;;;0.32;60.67
45793;BME280;31495;42.740;22.908;2023-03-19T01:03:26;93491.59;;;0.22;60.95
45793;BME280;31495;42.740;22.908;2023-03-19T01:04:26;93568.88;;;0.78;61.04
45793;BME280;31495;42.740;22.908;2023-03-19T01:05:25;93478.75;;;0.13;61.02
45793;BME280;31495;42.740;22.908;2023-03-19T01:06:25;93576.50;;;0.78;60.94
45793;BME280;31495;42.740;22.908;2023-03-19T01:07:25;93513.50;;;0.42;60.90
45793;BME280;31495;42.740;22.908;2023-03-19T01:08:24;93500.91;;;0.41;60.73
45793;BME280;31495;42.740;22.908;2023-03-19T01:09:25;93511.88;;;0.51;60.99
45793;BME280;31495;42.740;22.908;2023-03-19T01:10:24;93540.75;;;0.69;60.79
45793;BME280;31495;42.740;22.908;2023-03-19T01:11:24;93495.28;;;0.37;60.58
45793;BME280;31495;42.740;22.908;2023-03-19T01:12:24;93573.13;;;0.87;60.44
45793;BME280;31495;42.740;22.908;2023-03-19T01:13:23;93576.47;;;0.87;60.29
45793;BME280;31495;42.740;22.908;2023-03-19T01:14:23;93572.06;;;0.80;60.46
45793;BME280;31495;42.740;22.908;2023-03-19T01:15:23;93566.72;;;0.83;60.57
45793;BME280;31495;42.740;22.908;2023-03-19T01:16:22;93531.00;;;0.55;60.89
45793;BME280;31495;42.740;22.908;2023-03-19T01:17:22;93552.72;;;0.59;61.14
45793;BME280;31495;42.740;22.908;2023-03-19T01:18:21;93511.28;;;0.20;61.36
45793;BME280;31495;42.740;22.908;2023-03-19T01:19:21;93503.09;;;0.26;61.34
45793;BME280;31495;42.740;22.908;2023-03-19T01:20:20;93570.09;;;0.64;61.60
45793;BME280;31495;42.740;22.908;2023-03-19T01:21:22;93566.25;;;0.60;61.45
45793;BME280;31495;42.740;22.908;2023-03-19T01:22:21;93477.56;;;0.08;60.93
45793;BME280;31495;42.740;22.908;2023-03-19T01:23:21;93527.88;;;0.24;61.36
45793;BME280;31495;42.740;22.908;2023-03-19T01:24:20;93463.69;;;-0.17;61.64
45793;BME280;31495;42.740;22.908;2023-03-19T01:25:19;93508.34;;;0.05;61.68
45793;BME280;31495;42.740;22.908;2023-03-19T01:26:19;93513.56;;;0.13;61.59
45793;BME280;31495;42.740;22.908;2023-03-19T01:27:19;93511.72;;;0.15;61.13
45793;BME280;31495;42.740;22.908;2023-03-19T01:28:19;93465.28;;;-0.16;61.56
45793;BME280;31495;42.740;22.908;2023-03-19T01:29:18;93526.84;;;0.16;61.85
45793;BME280;31495;42.740;22.908;2023-03-19T01:30:18;93567.88;;;0.51;61.78
45793;BME280;31495;42.740;22.908;2023-03-19T01:31:19;93468.25;;;-0.11;61.89
45793;BME280;31495;42.740;22.908;2023-03-19T01:32:19;93520.00;;;0.07;61.43
45793;BME280;31495;42.740;22.908;2023-03-19T01:33:18;93461.97;;;-0.37;61.45
45793;BME280;31495;42.740;22.908;2023-03-19T01:34:18;93452.75;;;-0.38;61.87
45793;BME280;31495;42.740;22.908;2023-03-19T01:35:18;93569.66;;;0.31;61.91
45793;BME280;31495;42.740;22.908;2023-03-19T01:36:18;93470.69;;;-0.39;62.31
45793;BME280;31495;42.740;22.908;2023-03-19T01:37:18;93456.47;;;-0.42;62.29
45793;BME280;31495;42.740;22.908;2023-03-19T01:38:18;93514.81;;;-0.01;62.06
45793;BME280;31495;42.740;22.908;2023-03-19T01:39:18;93500.50;;;-0.22;62.13
45793;BME280;31495;42.740;22.908;2023-03-19T01:40:17;93579.97;;;0.20;62.54
45793;BME280;31495;42.740;22.908;2023-03-19T01:41:16;93487.25;;;-0.35;62.47
45793;BME280;31495;42.740;22.908;2023-03-19T01:42:16;93483.38;;;-0.39;62.41
45793;BME280;31495;42.740;22.908;2023-03-19T01:44:31;93490.47;;;-0.33;62.15
45793;BME280;31495;42.740;22.908;2023-03-19T01:45:35;93568.88;;;0.21;62.00
45793;BME280;31495;42.740;22.908;2023-03-19T01:46:36;93569.28;;;0.16;61.89
45793;BME280;31495;42.740;22.908;2023-03-19T01:47:39;93560.06;;;0.15;61.90
45793;BME280;31495;42.740;22.908;2023-03-19T01:48:43;93505.31;;;-0.28;61.88
45793;BME280;31495;42.740;22.908;2023-03-19T01:49:46;93550.81;;;-0.06;62.14
45793;BME280;31495;42.740;22.908;2023-03-19T01:50:49;93504.00;;;-0.42;61.82
45793;BME280;31495;42.740;22.908;2023-03-19T01:51:52;93518.28;;;-0.31;62.23
45793;BME280;31495;42.740;22.908;2023-03-19T01:52:53;93505.06;;;-0.45;61.74
45793;BME280;31495;42.740;22.908;2023-03-19T01:53:57;93567.31;;;-0.10;62.32
45793;BME280;31495;42.740;22.908;2023-03-19T01:55:00;93535.44;;;-0.43;62.54
45793;BME280;31495;42.740;22.908;2023-03-19T01:56:22;93530.88;;;-0.40;62.68
45793;BME280;31495;42.740;22.908;2023-03-19T01:57:23;93532.63;;;-0.40;62.72
45793;BME280;31495;42.740;22.908;2023-03-19T01:58:23;93564.63;;;-0.18;62.85
45793;BME280;31495;42.740;22.908;2023-03-19T01:59:53;93529.16;;;-0.39;62.65
45793;BME280;31495;42.740;22.908;2023-03-19T02:00:51;93564.88;;;-0.11;62.68
45793;BME280;31495;42.740;22.908;2023-03-19T02:01:56;93561.00;;;-0.15;62.81
45793;BME280;31495;42.740;22.908;2023-03-19T02:02:58;93550.69;;;-0.24;62.91
45793;BME280;31495;42.740;22.908;2023-03-19T02:03:58;93456.22;;;-0.78;62.63
45793;BME280;31495;42.740;22.908;2023-03-19T02:05:12;93560.34;;;-0.08;62.71
45793;BME280;31495;42.740;22.908;2023-03-19T02:06:14;93562.88;;;-0.08;62.59
45793;BME280;31495;42.740;22.908;2023-03-19T02:07:14;93514.69;;;-0.39;62.95
45793;BME280;31495;42.740;22.908;2023-03-19T02:08:16;93482.03;;;-0.63;63.08
45793;BME280;31495;42.740;22.908;2023-03-19T02:09:17;93558.06;;;-0.11;62.76
45793;BME280;31495;42.740;22.908;2023-03-19T02:10:18;93549.19;;;-0.16;62.84
45793;BME280;31495;42.740;22.908;2023-03-19T02:11:20;93469.84;;;-0.69;62.99
45793;BME280;31495;42.740;22.908;2023-03-19T02:12:20;93516.19;;;-0.36;62.69
45793;BME280;31495;42.740;22.908;2023-03-19T02:13:19;93568.75;;;0.03;62.63
45793;BME280;31495;42.740;22.908;2023-03-19T02:14:19;93516.56;;;-0.31;62.71
45793;BME280;31495;42.740;22.908;2023-03-19T02:15:19;93529.41;;;-0.23;62.71
45793;BME280;31495;42.740;22.908;2023-03-19T02:16:19;93498.66;;;-0.39;62.51
45793;BME280;31495;42.740;22.908;2023-03-19T02:17:20;93519.25;;;-0.23;62.46
45793;BME280;31495;42.740;22.908;2023-03-19T02:18:20;93558.59;;;-0.07;62.48
45793;BME280;31495;42.740;22.908;2023-03-19T02:19:54;93572.91;;;0.04;62.19
45793;BME280;31495;42.740;22.908;2023-03-19T02:21:08;93502.38;;;-0.43;61.94
45793;BME280;31495;42.740;22.908;2023-03-19T02:22:09;93547.63;;;-0.17;62.09
45793;BME280;31495;42.740;22.908;2023-03-19T02:24:31;93509.06;;;-0.42;62.66
45793;BME280;31495;42.740;22.908;2023-03-19T02:26:45;93574.50;;;-0.05;62.49
45793;BME280;31495;42.740;22.908;2023-03-19T02:27:45;93542.66;;;-0.29;62.25
45793;BME280;31495;42.740;22.908;2023-03-19T02:28:46;93501.19;;;-0.49;62.45
45793;BME280;31495;42.740;22.908;2023-03-19T02:29:46;93576.53;;;-0.09;62.34
45793;BME280;31495;42.740;22.908;2023-03-19T02:30:46;93571.56;;;-0.10;62.60
45793;BME280;31495;42.740;22.908;2023-03-19T02:31:46;93559.66;;;-0.20;62.58
45793;BME280;31495;42.740;22.908;2023-03-19T02:32:46;93515.09;;;-0.53;62.51
45793;BME280;31495;42.740;22.908;2023-03-19T02:34:03;93490.88;;;-0.57;62.63
45793;BME280;31495;42.740;22.908;2023-03-19T02:35:04;93522.31;;;-0.29;62.23
45793;BME280;31495;42.740;22.908;2023-03-19T02:36:05;93546.00;;;-0.19;62.34
45793;BME280;31495;42.740;22.908;2023-03-19T02:38:08;93505.59;;;-0.41;62.20
45793;BME280;31495;42.740;22.908;2023-03-19T02:40:17;93506.66;;;-0.44;62.24
45793;BME280;31495;42.740;22.908;2023-03-19T02:40:58;93571.31;;;-0.07;62.53
45793;BME280;31495;42.740;22.908;2023-03-19T02:41:59;93573.84;;;-0.07;62.73
45793;BME280;31495;42.740;22.908;2023-03-19T02:43:00;93533.56;;;-0.31;62.87
45793;BME280;31495;42.740;22.908;2023-03-19T02:44:01;93538.38;;;-0.38;62.83
45793;BME280;31495;42.740;22.908;2023-03-19T02:45:01;93551.91;;;-0.28;62.66
45793;BME280;31495;42.740;22.908;2023-03-19T02:46:03;93567.97;;;-0.17;62.94
45793;BME280;31495;42.740;22.908;2023-03-19T02:47:03;93538.63;;;-0.41;62.99
45793;BME280;31495;42.740;22.908;2023-03-19T02:48:04;93546.38;;;-0.43;63.00
45793;BME280;31495;42.740;22.908;2023-03-19T02:49:03;93571.69;;;-0.22;62.77
45793;BME280;31495;42.740;22.908;2023-03-19T02:50:03;93510.13;;;-0.64;62.46
45793;BME280;31495;42.740;22.908;2023-03-19T02:51:04;93528.06;;;-0.46;62.52
45793;BME280;31495;42.740;22.908;2023-03-19T02:52:04;93543.72;;;-0.41;62.29
45793;BME280;31495;42.740;22.908;2023-03-19T02:53:04;93513.75;;;-0.57;62.35
45793;BME280;31495;42.740;22.908;2023-03-19T02:54:04;93504.25;;;-0.65;62.41
45793;BME280;31495;42.740;22.908;2023-03-19T02:55:04;93576.53;;;-0.19;62.67
45793;BME280;31495;42.740;22.908;2023-03-19T02:56:05;93511.59;;;-0.62;62.50
45793;BME280;31495;42.740;22.908;2023-03-19T02:57:05;93536.09;;;-0.51;62.56
45793;BME280;31495;42.740;22.908;2023-03-19T02:58:05;93513.63;;;-0.65;62.59
45793;BME280;31495;42.740;22.908;2023-03-19T02:59:04;93563.66;;;-0.27;62.46
45793;BME280;31495;42.740;22.908;2023-03-19T03:00:05;93581.75;;;-0.20;62.33
45793;BME280;31495;42.740;22.908;2023-03-19T03:01:06;93487.50;;;-0.77;62.34
45793;BME280;31495;42.740;22.908;2023-03-19T03:02:05;93572.50;;;-0.31;62.45
45793;BME280;31495;42.740;22.908;2023-03-19T03:03:05;93576.63;;;-0.40;62.71
45793;BME280;31495;42.740;22.908;2023-03-19T03:04:06;93518.69;;;-0.75;62.69
45793;BME280;31495;42.740;22.908;2023-03-19T03:05:05;93577.72;;;-0.42;62.76
45793;BME280;31495;42.740;22.908;2023-03-19T03:06:05;93573.69;;;-0.45;62.74
45793;BME280;31495;42.740;22.908;2023-03-19T03:07:05;93585.47;;;-0.44;62.89
45793;BME280;31495;42.740;22.908;2023-03-19T03:08:05;93583.31;;;-0.48;63.07
45793;BME280;31495;42.740;22.908;2023-03-19T03:09:04;93585.88;;;-0.48;63.33
45793;BME280;31495;42.740;22.908;2023-03-19T03:10:06;93532.06;;;-0.73;63.45
45793;BME280;31495;42.740;22.908;2023-03-19T03:11:06;93511.69;;;-0.93;63.28
45793;BME280;31495;42.740;22.908;2023-03-19T03:12:06;93537.41;;;-0.76;63.25
45793;BME280;31495;42.740;22.908;2023-03-19T03:13:06;93363.19;;;-1.88;63.19
45793;BME280;31495;42.740;22.908;2023-03-19T03:14:06;93481.19;;;-1.12;63.03
45793;BME280;31495;42.740;22.908;2023-03-19T03:15:07;93558.53;;;-0.66;63.34
45793;BME280;31495;42.740;22.908;2023-03-19T03:16:07;93580.50;;;-0.55;63.58
45793;BME280;31495;42.740;22.908;2023-03-19T03:17:07;93547.03;;;-0.80;63.18
45793;BME280;31495;42.740;22.908;2023-03-19T03:18:07;93576.47;;;-0.58;63.48
45793;BME280;31495;42.740;22.908;2023-03-19T03:19:06;93555.19;;;-0.66;63.18
45793;BME280;31495;42.740;22.908;2023-03-19T03:20:07;93578.75;;;-0.54;63.59
45793;BME280;31495;42.740;22.908;2023-03-19T03:21:07;93533.09;;;-0.85;63.02
45793;BME280;31495;42.740;22.908;2023-03-19T03:22:08;93579.16;;;-0.59;63.32
45793;BME280;31495;42.740;22.908;2023-03-19T03:23:07;93548.47;;;-0.77;63.31
45793;BME280;31495;42.740;22.908;2023-03-19T03:24:07;93581.69;;;-0.59;63.62
45793;BME280;31495;42.740;22.908;2023-03-19T03:25:08;93571.13;;;-0.64;63.49
45793;BME280;31495;42.740;22.908;2023-03-19T03:26:08;93547.81;;;-0.79;63.53
45793;BME280;31495;42.740;22.908;2023-03-19T03:27:08;93533.66;;;-0.82;63.21
45793;BME280;31495;42.740;22.908;2023-03-19T03:28:07;93586.66;;;-0.48;62.92
45793;BME280;31495;42.740;22.908;2023-03-19T03:29:07;93565.50;;;-0.68;62.98
45793;BME280;31495;42.740;22.908;2023-03-19T03:30:08;93555.59;;;-0.71;62.82
45793;BME280;31495;42.740;22.908;2023-03-19T03:31:09;93554.91;;;-0.83;62.87
45793;BME280;31495;42.740;22.908;2023-03-19T03:32:08;93588.63;;;-0.71;63.10
45793;BME280;31495;42.740;22.908;2023-03-19T03:33:08;93547.78;;;-0.99;62.90
45793;BME280;31495;42.740;22.908;2023-03-19T03:34:07;93545.63;;;-1.13;63.37
45793;BME280;31495;42.740;22.908;2023-03-19T03:35:08;93590.59;;;-0.84;63.49
45793;BME280;31495;42.740;22.908;2023-03-19T03:36:07;93536.88;;;-1.20;63.73
45793;BME280;31495;42.740;22.908;2023-03-19T03:37:07;93556.97;;;-1.07;63.58
45793;BME280;31495;42.740;22.908;2023-03-19T03:38:07;93536.22;;;-1.22;63.83
45793;BME280;31495;42.740;22.908;2023-03-19T03:39:07;93560.06;;;-1.04;63.84
45793;BME280;31495;42.740;22.908;2023-03-19T03:40:07;93516.03;;;-1.24;63.58
45793;BME280;31495;42.740;22.908;2023-03-19T03:41:06;93579.34;;;-0.91;64.10
45793;BME280;31495;42.740;22.908;2023-03-19T03:42:06;93544.00;;;-1.14;63.74
45793;BME280;31495;42.740;22.908;2023-03-19T03:43:06;93555.94;;;-1.05;64.19
45793;BME280;31495;42.740;22.908;2023-03-19T03:44:07;93581.94;;;-0.82;63.81
45793;BME280;31495;42.740;22.908;2023-03-19T03:45:07;93596.25;;;-0.71;63.68
45793;BME280;31495;42.740;22.908;2023-03-19T03:46:07;93509.09;;;-1.22;63.72
45793;BME280;31495;42.740;22.908;2023-03-19T03:47:07;93592.91;;;-0.71;63.75
45793;BME280;31495;42.740;22.908;2023-03-19T03:48:07;93538.53;;;-1.09;63.90
45793;BME280;31495;42.740;22.908;2023-03-19T03:49:07;93595.31;;;-0.70;63.58
45793;BME280;31495;42.740;22.908;2023-03-19T03:50:07;93542.78;;;-1.10;63.88
45793;BME280;31495;42.740;22.908;2023-03-19T03:51:10;93598.53;;;-0.68;63.70
45793;BME280;31495;42.740;22.908;2023-03-19T03:52:10;93593.31;;;-0.66;63.58
45793;BME280;31495;42.740;22.908;2023-03-19T03:53:10;93539.75;;;-1.04;63.78
45793;BME280;31495;42.740;22.908;2023-03-19T03:54:11;93594.94;;;-0.65;63.67
45793;BME280;31495;42.740;22.908;2023-03-19T03:55:10;93545.91;;;-1.06;63.94
45793;BME280;31495;42.740;22.908;2023-03-19T03:56:10;93603.34;;;-0.75;64.01
45793;BME280;31495;42.740;22.908;2023-03-19T03:57:10;93558.47;;;-1.05;64.34
45793;BME280;31495;42.740;22.908;2023-03-19T03:58:10;93607.38;;;-0.72;64.23
45793;BME280;31495;42.740;22.908;2023-03-19T03:59:11;93566.91;;;-0.95;64.24
45793;BME280;31495;42.740;22.908;2023-03-19T04:00:11;93604.13;;;-0.74;64.17
45793;BME280;31495;42.740;22.908;2023-03-19T04:01:14;93609.78;;;-0.70;64.21
45793;BME280;31495;42.740;22.908;2023-03-19T04:02:14;93564.38;;;-0.95;63.87
45793;BME280;31495;42.740;22.908;2023-03-19T04:03:14;93604.94;;;-0.73;64.10
45793;BME280;31495;42.740;22.908;2023-03-19T04:04:13;93559.00;;;-1.01;64.23
45793;BME280;31495;42.740;22.908;2023-03-19T04:05:13;93606.13;;;-0.78;64.31
45793;BME280;31495;42.740;22.908;2023-03-19T04:06:18;93589.53;;;-0.91;64.19
45793;BME280;31495;42.740;22.908;2023-03-19T04:07:18;93596.75;;;-0.77;63.95
45793;BME280;31495;42.740;22.908;2023-03-19T04:08:18;93588.97;;;-0.85;64.15
45793;BME280;31495;42.740;22.908;2023-03-19T04:09:17;93601.03;;;-0.78;64.08
45793;BME280;31495;42.740;22.908;2023-03-19T04:10:17;93544.38;;;-1.19;63.84
45793;BME280;31495;42.740;22.908;2023-03-19T04:11:17;93605.47;;;-0.80;64.05
45793;BME280;31495;42.740;22.908;2023-03-19T04:12:18;93609.19;;;-0.84;63.79
45793;BME280;31495;42.740;22.908;2023-03-19T04:13:17;93603.72;;;-1.10;63.64
45793;BME280;31495;42.740;22.908;2023-03-19T04:14:16;93594.97;;;-1.27;64.11
45793;BME280;31495;42.740;22.908;2023-03-19T04:15:16;93579.00;;;-1.49;64.66
45793;BME280;31495;42.740;22.908;2023-03-19T04:16:15;93579.13;;;-1.50;64.59
45793;BME280;31495;42.740;22.908;2023-03-19T04:17:15;93590.53;;;-1.35;65.16
45793;BME280;31495;42.740;22.908;2023-03-19T04:18:14;93606.38;;;-1.21;64.92
45793;BME280;31495;42.740;22.908;2023-03-19T04:19:14;93565.22;;;-1.46;64.95
45793;BME280;31495;42.740;22.908;2023-03-19T04:20:14;93603.69;;;-1.20;65.01
45793;BME280;31495;42.740;22.908;2023-03-19T04:21:16;93593.13;;;-1.25;65.04
45793;BME280;31495;42.740;22.908;2023-03-19T04:22:16;93595.28;;;-1.20;65.20
45793;BME280;31495;42.740;22.908;2023-03-19T04:23:15;93556.94;;;-1.48;64.91
45793;BME280;31495;42.740;22.908;2023-03-19T04:24:15;93582.97;;;-1.25;64.61
45793;BME280;31495;42.740;22.908;2023-03-19T04:25:15;93567.56;;;-1.33;64.61
45793;BME280;31495;42.740;22.908;2023-03-19T04:26:15;93559.22;;;-1.45;64.57
45793;BME280;31495;42.740;22.908;2023-03-19T04:27:14;93556.31;;;-1.40;64.52
45793;BME280;31495;42.740;22.908;2023-03-19T04:28:15;93592.78;;;-1.11;64.42
45793;BME280;31495;42.740;22.908;2023-03-19T04:29:15;93594.28;;;-1.08;64.28
45793;BME280;31495;42.740;22.908;2023-03-19T04:30:14;93576.84;;;-1.22;64.17
45793;BME280;31495;42.740;22.908;2023-03-19T04:31:14;93598.13;;;-1.14;64.16
45793;BME280;31495;42.740;22.908;2023-03-19T04:32:13;93558.19;;;-1.42;64.30
45793;BME280;31495;42.740;22.908;2023-03-19T04:33:13;93546.13;;;-1.50;64.29
45793;BME280;31495;42.740;22.908;2023-03-19T04:34:13;93553.47;;;-1.47;64.53
45793;BME280;31495;42.740;22.908;2023-03-19T04:35:12;93541.00;;;-1.60;64.50
45793;BME280;31495;42.740;22.908;2023-03-19T04:36:12;93557.59;;;-1.46;64.80
45793;BME280;31495;42.740;22.908;2023-03-19T04:37:11;93558.13;;;-1.52;64.83
45793;BME280;31495;42.740;22.908;2023-03-19T04:38:11;93600.00;;;-1.37;64.74
45793;BME280;31495;42.740;22.908;2023-03-19T04:39:10;93588.78;;;-1.44;64.91
45793;BME280;31495;42.740;22.908;2023-03-19T04:40:10;93599.09;;;-1.36;64.73
45793;BME280;31495;42.740;22.908;2023-03-19T04:41:12;93546.22;;;-1.82;64.88
45793;BME280;31495;42.740;22.908;2023-03-19T04:42:12;93551.59;;;-1.76;65.03
45793;BME280;31495;42.740;22.908;2023-03-19T04:43:12;93554.50;;;-1.80;65.05
45793;BME280;31495;42.740;22.908;2023-03-19T04:44:11;93600.03;;;-1.58;65.20
45793;BME280;31495;42.740;22.908;2023-03-19T04:45:11;93548.00;;;-1.94;65.39
45793;BME280;31495;42.740;22.908;2023-03-19T04:46:11;93576.78;;;-1.84;65.43
45793;BME280;31495;42.740;22.908;2023-03-19T04:47:11;93580.50;;;-1.67;65.48
45793;BME280;31495;42.740;22.908;2023-03-19T04:48:10;93550.06;;;-1.88;65.87
45793;BME280;31495;42.740;22.908;2023-03-19T04:49:11;93554.78;;;-1.83;65.79
45793;BME280;31495;42.740;22.908;2023-03-19T04:50:11;93570.22;;;-1.65;65.50
45793;BME280;31495;42.740;22.908;2023-03-19T04:51:11;93568.59;;;-1.67;65.52
45793;BME280;31495;42.740;22.908;2023-03-19T04:52:11;93545.09;;;-1.69;65.33
45793;BME280;31495;42.740;22.908;2023-03-19T04:53:11;93589.44;;;-1.42;65.34
45793;BME280;31495;42.740;22.908;2023-03-19T04:54:11;93574.16;;;-1.52;65.29
45793;BME280;31495;42.740;22.908;2023-03-19T04:55:10;93574.72;;;-1.48;65.29
45793;BME280;31495;42.740;22.908;2023-03-19T04:56:09;93545.09;;;-1.69;65.35
45793;BME280;31495;42.740;22.908;2023-03-19T04:57:09;93554.53;;;-1.50;65.23
45793;BME280;31495;42.740;22.908;2023-03-19T04:58:08;93555.31;;;-1.59;64.92
45793;BME280;31495;42.740;22.908;2023-03-19T04:59:09;93552.53;;;-1.56;65.45
45793;BME280;31495;42.740;22.908;2023-03-19T05:00:09;93599.56;;;-1.21;64.99
45793;BME280;31495;42.740;22.908;2023-03-19T05:01:09;93595.94;;;-1.18;64.94
45793;BME280;31495;42.740;22.908;2023-03-19T05:02:09;93598.91;;;-1.23;65.21
45793;BME280;31495;42.740;22.908;2023-03-19T05:03:09;93517.56;;;-1.73;65.13
45793;BME280;31495;42.740;22.908;2023-03-19T05:04:09;93596.91;;;-1.19;65.32
45793;BME280;31495;42.740;22.908;2023-03-19T05:05:09;93579.34;;;-1.32;65.15
45793;BME280;31495;42.740;22.908;2023-03-19T05:06:11;93544.72;;;-1.64;64.91
45793;BME280;31495;42.740;22.908;2023-03-19T05:07:11;93567.38;;;-1.41;64.79
45793;BME280;31495;42.740;22.908;2023-03-19T05:08:11;93563.25;;;-1.42;64.39
45793;BME280;31495;42.740;22.908;2023-03-19T05:09:11;93610.63;;;-1.22;64.63
45793;BME280;31495;42.740;22.908;2023-03-19T05:10:11;93609.31;;;-1.26;64.78
45793;BME280;31495;42.740;22.908;2023-03-19T05:11:10;93550.47;;;-1.62;64.91
45793;BME280;31495;42.740;22.908;2023-03-19T05:12:11;93553.56;;;-1.58;65.04
45793;BME280;31495;42.740;22.908;2023-03-19T05:13:11;93581.56;;;-1.39;64.75
45793;BME280;31495;42.740;22.908;2023-03-19T05:14:10;93553.59;;;-1.49;64.70
45793;BME280;31495;42.740;22.908;2023-03-19T05:15:10;93541.28;;;-1.53;64.71
45793;BME280;31495;42.740;22.908;2023-03-19T05:16:10;93566.50;;;-1.31;64.22
45793;BME280;31495;42.740;22.908;2023-03-19T05:17:11;93569.31;;;-1.34;64.07
45793;BME280;31495;42.740;22.908;2023-03-19T05:18:12;93592.78;;;-1.11;64.17
45793;BME280;31495;42.740;22.908;2023-03-19T05:19:12;93536.63;;;-1.48;64.12
45793;BME280;31495;42.740;22.908;2023-03-19T05:20:11;93554.19;;;-1.35;64.02
45793;BME280;31495;42.740;22.908;2023-03-19T05:21:11;93599.09;;;-1.05;64.15
45793;BME280;31495;42.740;22.908;2023-03-19T05:22:11;93572.63;;;-1.33;64.81
45793;BME280;31495;42.740;22.908;2023-03-19T05:23:11;93545.78;;;-1.67;65.47